Kilimanjaro, Tanzania

10:52 PM EAT on October 31, 2014 (GMT +0300)
Kilimanjaro International | Change Station
CLOSE
Current Station
Airport
Location: Kilimanjaro,
Elevation: 2940 ft
Nearby Weather Stations

Elev 2940 ft 3.43 °S, 37.07 °E | Updated 52 minutes ago

Scattered Clouds
Scattered Clouds
73 °F
Feels Like 73 °F
N
12
Wind Variable Wind from ESE

Today
High -- | Low -- °F
--% Chance of Precip.
Yesterday
High -- | Low -- °F
Precip. -- in
6:08 AM 6:22 PM
First Quarter, 58% visible
Pressure 29.98 in
Visibility 6.2 miles
Clouds Scattered Clouds 2400 ft
Dew Point 61 °F
Humidity 65%
Rainfall 0.00 in
Snow Depth Not available.
UV 0 out of 12
Pollen Not available.
Air Quality Not available.
Flu Activity Not available.
METAR HTKJ 311900Z 12010KT 9999 SCT024 23/16 Q1015 NOSIG

More Conditions Fewer Conditions

Pressure 29.98 in
Visibility 6.2 miles
Clouds Scattered Clouds 2400 ft
Dew Point 61 °F
Humidity 65%
Rainfall 0.00 in
Snow Depth Not available.
UV 0 out of 12
Pollen Not available.
Air Quality Not available.
Flu Activity Not available.
METAR HTKJ 311900Z 12010KT 9999 SCT024 23/16 Q1015 NOSIG

More Conditions Fewer Conditions

10-Day Weather Forecast

Almanac

Astronomy

Oct. 31, 2014 Rise Set
Actual Time
Civil Twilight
Nautical Twilight
Astronomical Twilight
Moon
Length of Visible Light
Length of Day
Tomorrow will be .
, % of the Moon is Illuminated

Today's Extremes

Country Highs Country Lows

Community

WunderPhotos

Upload Photos

1,766,711 photos uploaded!

WunderBlogs® & News

Nearby

Air Quality

  Air Quality AQ Index Pollutant
Not available.

Snow Depth

Station Depth Elevation

Earthquake Activity

City Distance Mag. Time & Date
Minimum magnitude displayed is 2.5.

Coastal Water Temperatures

Place Temperature

Nearby Weather Stations